sensor_id;sensor_type;location;lat;lon;timestamp;P1;durP1;ratioP1;P2;durP2;ratioP2
26686;SDS011;14298;50.900;4.648;2023-08-08T00:00:13;0.70;;;0.70;;
26686;SDS011;14298;50.900;4.648;2023-08-08T00:02:41;9.07;;;1.70;;
26686;SDS011;14298;50.900;4.648;2023-08-08T00:05:09;0.87;;;0.63;;
26686;SDS011;14298;50.900;4.648;2023-08-08T00:07:37;2.50;;;1.03;;
26686;SDS011;14298;50.900;4.648;2023-08-08T00:10:05;0.40;;;0.40;;
26686;SDS011;14298;50.900;4.648;2023-08-08T00:12:33;0.80;;;0.80;;
26686;SDS011;14298;50.900;4.648;2023-08-08T00:15:01;2.37;;;0.60;;
26686;SDS011;14298;50.900;4.648;2023-08-08T00:17:29;0.70;;;0.70;;
26686;SDS011;14298;50.900;4.648;2023-08-08T00:19:57;2.13;;;0.70;;
26686;SDS011;14298;50.900;4.648;2023-08-08T00:22:26;0.83;;;0.83;;
26686;SDS011;14298;50.900;4.648;2023-08-08T00:24:54;1.13;;;0.70;;
26686;SDS011;14298;50.900;4.648;2023-08-08T00:27:22;4.20;;;1.30;;
26686;SDS011;14298;50.900;4.648;2023-08-08T00:29:50;1.23;;;0.93;;
26686;SDS011;14298;50.900;4.648;2023-08-08T00:32:19;1.37;;;1.27;;
26686;SDS011;14298;50.900;4.648;2023-08-08T00:34:47;3.70;;;1.43;;
26686;SDS011;14298;50.900;4.648;2023-08-08T00:37:15;0.97;;;0.87;;
26686;SDS011;14298;50.900;4.648;2023-08-08T00:39:43;4.10;;;0.90;;
26686;SDS011;14298;50.900;4.648;2023-08-08T00:42:13;0.60;;;0.60;;
26686;SDS011;14298;50.900;4.648;2023-08-08T00:44:41;1.73;;;1.13;;
26686;SDS011;14298;50.900;4.648;2023-08-08T00:47:09;2.33;;;1.00;;
26686;SDS011;14298;50.900;4.648;2023-08-08T00:49:37;2.53;;;1.60;;
26686;SDS011;14298;50.900;4.648;2023-08-08T00:52:06;0.60;;;0.60;;
26686;SDS011;14298;50.900;4.648;2023-08-08T00:54:34;0.60;;;0.60;;
26686;SDS011;14298;50.900;4.648;2023-08-08T00:57:02;0.93;;;0.90;;
26686;SDS011;14298;50.900;4.648;2023-08-08T00:59:30;1.47;;;0.90;;
26686;SDS011;14298;50.900;4.648;2023-08-08T01:01:59;0.77;;;0.77;;
26686;SDS011;14298;50.900;4.648;2023-08-08T01:04:27;8.17;;;1.57;;
26686;SDS011;14298;50.900;4.648;2023-08-08T01:09:43;1.33;;;0.90;;
26686;SDS011;14298;50.900;4.648;2023-08-08T01:12:11;0.83;;;0.83;;
26686;SDS011;14298;50.900;4.648;2023-08-08T01:14:40;0.67;;;0.67;;
26686;SDS011;14298;50.900;4.648;2023-08-08T01:17:10;1.20;;;1.10;;
26686;SDS011;14298;50.900;4.648;2023-08-08T01:19:38;0.70;;;0.70;;
26686;SDS011;14298;50.900;4.648;2023-08-08T01:22:09;0.60;;;0.60;;
26686;SDS011;14298;50.900;4.648;2023-08-08T01:24:36;0.43;;;0.43;;
26686;SDS011;14298;50.900;4.648;2023-08-08T01:27:04;1.30;;;1.20;;
26686;SDS011;14298;50.900;4.648;2023-08-08T01:29:33;1.10;;;1.00;;
26686;SDS011;14298;50.900;4.648;2023-08-08T01:32:01;0.63;;;0.63;;
26686;SDS011;14298;50.900;4.648;2023-08-08T01:34:29;1.53;;;1.43;;
26686;SDS011;14298;50.900;4.648;2023-08-08T01:36:58;0.80;;;0.80;;
26686;SDS011;14298;50.900;4.648;2023-08-08T01:39:27;3.33;;;2.00;;
26686;SDS011;14298;50.900;4.648;2023-08-08T01:41:56;1.43;;;1.30;;
26686;SDS011;14298;50.900;4.648;2023-08-08T01:44:24;12.33;;;1.43;;
26686;SDS011;14298;50.900;4.648;2023-08-08T01:46:52;0.93;;;0.90;;
26686;SDS011;14298;50.900;4.648;2023-08-08T01:49:21;2.83;;;1.10;;
26686;SDS011;14298;50.900;4.648;2023-08-08T01:51:48;0.63;;;0.63;;
26686;SDS011;14298;50.900;4.648;2023-08-08T01:54:18;3.10;;;2.10;;
26686;SDS011;14298;50.900;4.648;2023-08-08T01:56:46;5.83;;;1.43;;
26686;SDS011;14298;50.900;4.648;2023-08-08T01:59:14;1.00;;;1.00;;
26686;SDS011;14298;50.900;4.648;2023-08-08T02:01:42;11.13;;;1.57;;
26686;SDS011;14298;50.900;4.648;2023-08-08T02:04:10;0.80;;;0.80;;
26686;SDS011;14298;50.900;4.648;2023-08-08T02:06:38;7.10;;;2.30;;
26686;SDS011;14298;50.900;4.648;2023-08-08T02:09:06;1.30;;;1.20;;
26686;SDS011;14298;50.900;4.648;2023-08-08T02:11:34;1.10;;;1.10;;
26686;SDS011;14298;50.900;4.648;2023-08-08T02:14:02;6.77;;;1.53;;
26686;SDS011;14298;50.900;4.648;2023-08-08T02:16:30;2.30;;;1.43;;
26686;SDS011;14298;50.900;4.648;2023-08-08T02:18:58;3.70;;;1.33;;
26686;SDS011;14298;50.900;4.648;2023-08-08T02:21:26;3.23;;;1.53;;
26686;SDS011;14298;50.900;4.648;2023-08-08T02:23:54;1.47;;;1.37;;
26686;SDS011;14298;50.900;4.648;2023-08-08T02:26:24;0.97;;;0.83;;
26686;SDS011;14298;50.900;4.648;2023-08-08T02:28:52;6.17;;;2.13;;
26686;SDS011;14298;50.900;4.648;2023-08-08T02:31:20;1.03;;;1.03;;
26686;SDS011;14298;50.900;4.648;2023-08-08T02:33:48;1.07;;;0.97;;
26686;SDS011;14298;50.900;4.648;2023-08-08T02:36:17;2.03;;;1.23;;
26686;SDS011;14298;50.900;4.648;2023-08-08T02:38:45;5.97;;;1.77;;
26686;SDS011;14298;50.900;4.648;2023-08-08T02:41:13;2.20;;;1.53;;
26686;SDS011;14298;50.900;4.648;2023-08-08T02:43:41;5.87;;;1.57;;
26686;SDS011;14298;50.900;4.648;2023-08-08T02:46:09;1.20;;;1.10;;
26686;SDS011;14298;50.900;4.648;2023-08-08T02:48:37;1.60;;;1.47;;
26686;SDS011;14298;50.900;4.648;2023-08-08T02:51:05;1.23;;;1.20;;
26686;SDS011;14298;50.900;4.648;2023-08-08T02:53:33;5.60;;;1.90;;
26686;SDS011;14298;50.900;4.648;2023-08-08T02:56:01;3.03;;;1.30;;
26686;SDS011;14298;50.900;4.648;2023-08-08T02:58:29;4.07;;;1.60;;
26686;SDS011;14298;50.900;4.648;2023-08-08T03:00:57;1.57;;;1.47;;
26686;SDS011;14298;50.900;4.648;2023-08-08T03:03:25;1.27;;;1.17;;
26686;SDS011;14298;50.900;4.648;2023-08-08T03:05:53;1.97;;;1.63;;
26686;SDS011;14298;50.900;4.648;2023-08-08T03:08:21;4.73;;;1.77;;
26686;SDS011;14298;50.900;4.648;2023-08-08T03:10:49;4.97;;;1.57;;
26686;SDS011;14298;50.900;4.648;2023-08-08T03:13:17;1.00;;;1.00;;
26686;SDS011;14298;50.900;4.648;2023-08-08T03:15:46;1.63;;;1.53;;
26686;SDS011;14298;50.900;4.648;2023-08-08T03:18:14;4.43;;;1.53;;
26686;SDS011;14298;50.900;4.648;2023-08-08T03:20:42;2.63;;;2.07;;
26686;SDS011;14298;50.900;4.648;2023-08-08T03:23:10;4.77;;;1.30;;
26686;SDS011;14298;50.900;4.648;2023-08-08T03:25:38;3.30;;;1.73;;
26686;SDS011;14298;50.900;4.648;2023-08-08T03:28:06;2.20;;;1.20;;
26686;SDS011;14298;50.900;4.648;2023-08-08T03:30:40;5.37;;;1.40;;
26686;SDS011;14298;50.900;4.648;2023-08-08T03:33:04;4.53;;;1.57;;
26686;SDS011;14298;50.900;4.648;2023-08-08T03:35:32;2.90;;;1.33;;
26686;SDS011;14298;50.900;4.648;2023-08-08T03:38:00;1.10;;;1.10;;
26686;SDS011;14298;50.900;4.648;2023-08-08T03:40:30;1.00;;;0.90;;
26686;SDS011;14298;50.900;4.648;2023-08-08T03:42:58;2.80;;;1.93;;
26686;SDS011;14298;50.900;4.648;2023-08-08T03:45:26;4.87;;;1.80;;
26686;SDS011;14298;50.900;4.648;2023-08-08T03:47:55;7.60;;;1.80;;
26686;SDS011;14298;50.900;4.648;2023-08-08T03:50:23;1.03;;;1.03;;
26686;SDS011;14298;50.900;4.648;2023-08-08T03:52:51;2.00;;;1.47;;
26686;SDS011;14298;50.900;4.648;2023-08-08T03:55:20;5.13;;;1.90;;
26686;SDS011;14298;50.900;4.648;2023-08-08T03:57:48;2.07;;;1.87;;
26686;SDS011;14298;50.900;4.648;2023-08-08T04:00:16;1.90;;;1.80;;
26686;SDS011;14298;50.900;4.648;2023-08-08T04:02:44;1.60;;;1.50;;
26686;SDS011;14298;50.900;4.648;2023-08-08T04:05:12;11.60;;;3.00;;
26686;SDS011;14298;50.900;4.648;2023-08-08T04:07:39;2.27;;;1.57;;
26686;SDS011;14298;50.900;4.648;2023-08-08T04:10:08;4.97;;;2.67;;
26686;SDS011;14298;50.900;4.648;2023-08-08T04:12:36;4.67;;;2.13;;
26686;SDS011;14298;50.900;4.648;2023-08-08T04:15:04;3.17;;;1.87;;
26686;SDS011;14298;50.900;4.648;2023-08-08T04:17:32;2.77;;;1.83;;
26686;SDS011;14298;50.900;4.648;2023-08-08T04:20:00;12.17;;;2.93;;
26686;SDS011;14298;50.900;4.648;2023-08-08T04:22:28;7.77;;;2.50;;
26686;SDS011;14298;50.900;4.648;2023-08-08T04:24:56;2.33;;;1.90;;
26686;SDS011;14298;50.900;4.648;2023-08-08T04:27:24;2.87;;;1.40;;
26686;SDS011;14298;50.900;4.648;2023-08-08T04:29:52;1.87;;;1.70;;
26686;SDS011;14298;50.900;4.648;2023-08-08T04:32:20;1.70;;;1.60;;
26686;SDS011;14298;50.900;4.648;2023-08-08T04:34:48;3.83;;;1.90;;
26686;SDS011;14298;50.900;4.648;2023-08-08T04:37:16;2.43;;;2.13;;
26686;SDS011;14298;50.900;4.648;2023-08-08T04:39:44;2.47;;;1.73;;
26686;SDS011;14298;50.900;4.648;2023-08-08T04:42:12;2.93;;;1.60;;
26686;SDS011;14298;50.900;4.648;2023-08-08T04:44:40;3.30;;;1.70;;
26686;SDS011;14298;50.900;4.648;2023-08-08T04:47:08;1.30;;;1.20;;
26686;SDS011;14298;50.900;4.648;2023-08-08T04:49:36;1.53;;;1.43;;
26686;SDS011;14298;50.900;4.648;2023-08-08T04:52:04;2.47;;;1.73;;
26686;SDS011;14298;50.900;4.648;2023-08-08T04:54:32;2.00;;;1.90;;
26686;SDS011;14298;50.900;4.648;2023-08-08T04:57:00;2.13;;;1.30;;
26686;SDS011;14298;50.900;4.648;2023-08-08T04:59:28;1.43;;;1.33;;
26686;SDS011;14298;50.900;4.648;2023-08-08T05:01:56;1.93;;;1.60;;
26686;SDS011;14298;50.900;4.648;2023-08-08T05:04:24;1.50;;;1.40;;
26686;SDS011;14298;50.900;4.648;2023-08-08T05:06:52;1.67;;;1.40;;
26686;SDS011;14298;50.900;4.648;2023-08-08T05:09:20;2.77;;;1.63;;
26686;SDS011;14298;50.900;4.648;2023-08-08T05:11:49;4.17;;;2.77;;
26686;SDS011;14298;50.900;4.648;2023-08-08T05:14:17;1.23;;;1.23;;
26686;SDS011;14298;50.900;4.648;2023-08-08T05:16:45;1.97;;;1.50;;
26686;SDS011;14298;50.900;4.648;2023-08-08T05:19:13;1.00;;;1.00;;
26686;SDS011;14298;50.900;4.648;2023-08-08T05:21:41;4.23;;;1.90;;
26686;SDS011;14298;50.900;4.648;2023-08-08T05:24:09;5.47;;;2.13;;
26686;SDS011;14298;50.900;4.648;2023-08-08T05:26:37;2.07;;;1.43;;
26686;SDS011;14298;50.900;4.648;2023-08-08T05:29:05;1.83;;;1.73;;
26686;SDS011;14298;50.900;4.648;2023-08-08T05:31:33;1.13;;;0.90;;
26686;SDS011;14298;50.900;4.648;2023-08-08T05:34:01;0.97;;;0.97;;
26686;SDS011;14298;50.900;4.648;2023-08-08T05:36:29;1.03;;;1.03;;
26686;SDS011;14298;50.900;4.648;2023-08-08T05:38:57;1.47;;;1.33;;
26686;SDS011;14298;50.900;4.648;2023-08-08T05:41:25;1.07;;;1.00;;
26686;SDS011;14298;50.900;4.648;2023-08-08T05:43:53;3.07;;;1.27;;
26686;SDS011;14298;50.900;4.648;2023-08-08T05:46:21;1.60;;;0.93;;
26686;SDS011;14298;50.900;4.648;2023-08-08T05:48:49;1.13;;;1.03;;
26686;SDS011;14298;50.900;4.648;2023-08-08T05:51:17;2.07;;;0.97;;
26686;SDS011;14298;50.900;4.648;2023-08-08T05:53:45;15.77;;;1.00;;
26686;SDS011;14298;50.900;4.648;2023-08-08T05:56:13;1.03;;;0.87;;
26686;SDS011;14298;50.900;4.648;2023-08-08T05:58:41;4.87;;;1.40;;
26686;SDS011;14298;50.900;4.648;2023-08-08T06:01:09;0.60;;;0.60;;
26686;SDS011;14298;50.900;4.648;2023-08-08T06:03:38;0.97;;;0.83;;
26686;SDS011;14298;50.900;4.648;2023-08-08T06:06:06;0.93;;;0.87;;
26686;SDS011;14298;50.900;4.648;2023-08-08T06:08:34;1.17;;;0.83;;
26686;SDS011;14298;50.900;4.648;2023-08-08T06:11:02;9.00;;;1.63;;
26686;SDS011;14298;50.900;4.648;2023-08-08T06:13:30;1.50;;;1.13;;
26686;SDS011;14298;50.900;4.648;2023-08-08T06:15:58;1.33;;;1.20;;
26686;SDS011;14298;50.900;4.648;2023-08-08T06:18:28;2.30;;;1.47;;
26686;SDS011;14298;50.900;4.648;2023-08-08T06:20:56;3.77;;;1.67;;
26686;SDS011;14298;50.900;4.648;2023-08-08T06:23:24;5.03;;;1.40;;
26686;SDS011;14298;50.900;4.648;2023-08-08T06:25:52;0.83;;;0.83;;
26686;SDS011;14298;50.900;4.648;2023-08-08T06:28:20;3.53;;;1.63;;
26686;SDS011;14298;50.900;4.648;2023-08-08T06:30:48;0.80;;;0.80;;
26686;SDS011;14298;50.900;4.648;2023-08-08T06:33:16;2.93;;;1.57;;
26686;SDS011;14298;50.900;4.648;2023-08-08T06:35:44;1.23;;;1.13;;
26686;SDS011;14298;50.900;4.648;2023-08-08T06:38:12;2.03;;;1.07;;
26686;SDS011;14298;50.900;4.648;2023-08-08T06:40:40;1.93;;;1.27;;
26686;SDS011;14298;50.900;4.648;2023-08-08T06:43:08;2.43;;;1.10;;
26686;SDS011;14298;50.900;4.648;2023-08-08T06:45:36;0.90;;;0.87;;
26686;SDS011;14298;50.900;4.648;2023-08-08T06:48:04;1.17;;;0.87;;
26686;SDS011;14298;50.900;4.648;2023-08-08T06:50:32;2.43;;;1.20;;
26686;SDS011;14298;50.900;4.648;2023-08-08T06:53:00;1.90;;;1.23;;
26686;SDS011;14298;50.900;4.648;2023-08-08T06:55:28;5.30;;;0.83;;
26686;SDS011;14298;50.900;4.648;2023-08-08T06:57:56;1.73;;;0.97;;
26686;SDS011;14298;50.900;4.648;2023-08-08T07:00:24;1.27;;;0.93;;
26686;SDS011;14298;50.900;4.648;2023-08-08T07:02:54;2.87;;;1.13;;
26686;SDS011;14298;50.900;4.648;2023-08-08T07:05:22;0.83;;;0.83;;
26686;SDS011;14298;50.900;4.648;2023-08-08T07:07:51;3.10;;;0.97;;
26686;SDS011;14298;50.900;4.648;2023-08-08T07:10:19;4.27;;;1.03;;
26686;SDS011;14298;50.900;4.648;2023-08-08T07:12:47;8.17;;;1.50;;
26686;SDS011;14298;50.900;4.648;2023-08-08T07:15:15;3.17;;;1.10;;
26686;SDS011;14298;50.900;4.648;2023-08-08T07:17:43;2.00;;;1.23;;
26686;SDS011;14298;50.900;4.648;2023-08-08T07:20:11;1.13;;;0.90;;
26686;SDS011;14298;50.900;4.648;2023-08-08T07:22:42;3.03;;;1.17;;
26686;SDS011;14298;50.900;4.648;2023-08-08T07:25:10;0.60;;;0.60;;
26686;SDS011;14298;50.900;4.648;2023-08-08T07:27:38;1.97;;;0.80;;
26686;SDS011;14298;50.900;4.648;2023-08-08T07:30:06;2.03;;;0.90;;
26686;SDS011;14298;50.900;4.648;2023-08-08T07:32:35;5.30;;;1.20;;
26686;SDS011;14298;50.900;4.648;2023-08-08T07:35:03;1.23;;;0.50;;
26686;SDS011;14298;50.900;4.648;2023-08-08T07:37:32;1.80;;;0.87;;
26686;SDS011;14298;50.900;4.648;2023-08-08T07:40:01;1.03;;;0.80;;
26686;SDS011;14298;50.900;4.648;2023-08-08T07:42:29;0.83;;;0.70;;
26686;SDS011;14298;50.900;4.648;2023-08-08T07:44:57;3.03;;;1.17;;
26686;SDS011;14298;50.900;4.648;2023-08-08T07:47:25;2.10;;;1.10;;
26686;SDS011;14298;50.900;4.648;2023-08-08T07:49:53;2.50;;;1.00;;
26686;SDS011;14298;50.900;4.648;2023-08-08T07:52:21;2.40;;;0.90;;
26686;SDS011;14298;50.900;4.648;2023-08-08T07:54:50;1.03;;;0.90;;
26686;SDS011;14298;50.900;4.648;2023-08-08T07:57:18;1.47;;;1.13;;
26686;SDS011;14298;50.900;4.648;2023-08-08T07:59:46;1.70;;;1.27;;
26686;SDS011;14298;50.900;4.648;2023-08-08T08:02:14;4.43;;;1.47;;
26686;SDS011;14298;50.900;4.648;2023-08-08T08:04:42;2.53;;;1.60;;
26686;SDS011;14298;50.900;4.648;2023-08-08T08:07:10;0.70;;;0.70;;
26686;SDS011;14298;50.900;4.648;2023-08-08T08:09:38;1.10;;;0.83;;
26686;SDS011;14298;50.900;4.648;2023-08-08T08:12:08;0.50;;;0.50;;
26686;SDS011;14298;50.900;4.648;2023-08-08T08:14:36;4.67;;;0.90;;
26686;SDS011;14298;50.900;4.648;2023-08-08T08:17:04;1.40;;;1.13;;
26686;SDS011;14298;50.900;4.648;2023-08-08T08:19:32;1.17;;;0.90;;
26686;SDS011;14298;50.900;4.648;2023-08-08T08:22:00;1.23;;;1.00;;
26686;SDS011;14298;50.900;4.648;2023-08-08T08:24:28;1.63;;;1.03;;
26686;SDS011;14298;50.900;4.648;2023-08-08T08:26:57;2.30;;;1.33;;
26686;SDS011;14298;50.900;4.648;2023-08-08T08:29:25;0.80;;;0.80;;
26686;SDS011;14298;50.900;4.648;2023-08-08T08:31:53;2.50;;;1.70;;
26686;SDS011;14298;50.900;4.648;2023-08-08T08:34:20;1.00;;;0.93;;
26686;SDS011;14298;50.900;4.648;2023-08-08T08:36:48;1.87;;;1.10;;
26686;SDS011;14298;50.900;4.648;2023-08-08T08:39:16;1.47;;;1.20;;
26686;SDS011;14298;50.900;4.648;2023-08-08T08:41:45;2.00;;;1.30;;
26686;SDS011;14298;50.900;4.648;2023-08-08T08:44:14;3.63;;;1.30;;
26686;SDS011;14298;50.900;4.648;2023-08-08T08:46:44;1.50;;;1.30;;
26686;SDS011;14298;50.900;4.648;2023-08-08T08:49:13;3.07;;;1.20;;
26686;SDS011;14298;50.900;4.648;2023-08-08T08:51:41;0.57;;;0.57;;
26686;SDS011;14298;50.900;4.648;2023-08-08T08:54:10;1.10;;;1.03;;
26686;SDS011;14298;50.900;4.648;2023-08-08T08:56:38;5.07;;;1.10;;
26686;SDS011;14298;50.900;4.648;2023-08-08T08:59:06;0.90;;;0.90;;
26686;SDS011;14298;50.900;4.648;2023-08-08T09:01:34;1.33;;;1.00;;
26686;SDS011;14298;50.900;4.648;2023-08-08T09:04:03;6.60;;;1.33;;
26686;SDS011;14298;50.900;4.648;2023-08-08T09:06:32;2.87;;;1.23;;
26686;SDS011;14298;50.900;4.648;2023-08-08T09:09:00;3.40;;;0.80;;
26686;SDS011;14298;50.900;4.648;2023-08-08T09:11:29;2.47;;;0.93;;
26686;SDS011;14298;50.900;4.648;2023-08-08T09:13:58;0.93;;;0.80;;
26686;SDS011;14298;50.900;4.648;2023-08-08T09:16:27;0.60;;;0.60;;
26686;SDS011;14298;50.900;4.648;2023-08-08T09:18:55;1.10;;;1.00;;
26686;SDS011;14298;50.900;4.648;2023-08-08T09:21:23;1.00;;;0.90;;
26686;SDS011;14298;50.900;4.648;2023-08-08T09:23:51;4.20;;;1.10;;
26686;SDS011;14298;50.900;4.648;2023-08-08T09:26:19;0.90;;;0.60;;
26686;SDS011;14298;50.900;4.648;2023-08-08T09:28:47;1.23;;;0.77;;
26686;SDS011;14298;50.900;4.648;2023-08-08T09:31:15;1.17;;;0.70;;
26686;SDS011;14298;50.900;4.648;2023-08-08T09:33:44;2.70;;;0.77;;
26686;SDS011;14298;50.900;4.648;2023-08-08T09:36:14;3.77;;;0.83;;
26686;SDS011;14298;50.900;4.648;2023-08-08T09:38:44;0.77;;;0.73;;
26686;SDS011;14298;50.900;4.648;2023-08-08T09:41:12;4.90;;;1.40;;
26686;SDS011;14298;50.900;4.648;2023-08-08T09:43:44;1.00;;;0.77;;
26686;SDS011;14298;50.900;4.648;2023-08-08T09:46:12;1.77;;;0.80;;
26686;SDS011;14298;50.900;4.648;2023-08-08T09:48:42;2.13;;;0.97;;
26686;SDS011;14298;50.900;4.648;2023-08-08T09:51:10;3.30;;;0.90;;
26686;SDS011;14298;50.900;4.648;2023-08-08T09:53:38;2.10;;;0.57;;
26686;SDS011;14298;50.900;4.648;2023-08-08T09:56:07;1.03;;;0.77;;
26686;SDS011;14298;50.900;4.648;2023-08-08T09:58:35;2.40;;;0.90;;
26686;SDS011;14298;50.900;4.648;2023-08-08T10:01:03;0.60;;;0.60;;
26686;SDS011;14298;50.900;4.648;2023-08-08T10:03:31;0.83;;;0.70;;
26686;SDS011;14298;50.900;4.648;2023-08-08T10:06:00;1.90;;;1.50;;
26686;SDS011;14298;50.900;4.648;2023-08-08T10:08:29;1.13;;;0.80;;
26686;SDS011;14298;50.900;4.648;2023-08-08T10:10:58;2.10;;;1.57;;
26686;SDS011;14298;50.900;4.648;2023-08-08T10:13:26;1.80;;;0.83;;
26686;SDS011;14298;50.900;4.648;2023-08-08T10:15:54;0.53;;;0.50;;
26686;SDS011;14298;50.900;4.648;2023-08-08T10:18:23;1.63;;;0.77;;
26686;SDS011;14298;50.900;4.648;2023-08-08T10:20:51;0.30;;;0.30;;
26686;SDS011;14298;50.900;4.648;2023-08-08T10:23:20;0.40;;;0.40;;
26686;SDS011;14298;50.900;4.648;2023-08-08T10:25:50;0.83;;;0.77;;
26686;SDS011;14298;50.900;4.648;2023-08-08T10:28:19;0.30;;;0.30;;
26686;SDS011;14298;50.900;4.648;2023-08-08T10:30:48;3.97;;;0.90;;
26686;SDS011;14298;50.900;4.648;2023-08-08T10:33:17;0.83;;;0.60;;
26686;SDS011;14298;50.900;4.648;2023-08-08T10:35:59;0.97;;;0.93;;
26686;SDS011;14298;50.900;4.648;2023-08-08T10:38:38;0.60;;;0.60;;
26686;SDS011;14298;50.900;4.648;2023-08-08T10:40:57;2.87;;;1.03;;
26686;SDS011;14298;50.900;4.648;2023-08-08T10:43:31;0.80;;;0.67;;
26686;SDS011;14298;50.900;4.648;2023-08-08T10:46:04;0.93;;;0.77;;
26686;SDS011;14298;50.900;4.648;2023-08-08T10:48:28;0.83;;;0.57;;
26686;SDS011;14298;50.900;4.648;2023-08-08T10:50:59;0.67;;;0.60;;
26686;SDS011;14298;50.900;4.648;2023-08-08T10:53:28;0.60;;;0.60;;
26686;SDS011;14298;50.900;4.648;2023-08-08T10:55:57;1.33;;;0.80;;
26686;SDS011;14298;50.900;4.648;2023-08-08T10:58:36;1.77;;;0.40;;
26686;SDS011;14298;50.900;4.648;2023-08-08T11:01:04;3.97;;;0.87;;
26686;SDS011;14298;50.900;4.648;2023-08-08T11:03:36;0.20;;;0.20;;
26686;SDS011;14298;50.900;4.648;2023-08-08T11:06:10;2.43;;;0.60;;
26686;SDS011;14298;50.900;4.648;2023-08-08T11:08:34;0.80;;;0.57;;
26686;SDS011;14298;50.900;4.648;2023-08-08T11:11:03;0.40;;;0.40;;
26686;SDS011;14298;50.900;4.648;2023-08-08T11:13:31;0.20;;;0.20;;
26686;SDS011;14298;50.900;4.648;2023-08-08T11:15:59;0.87;;;0.60;;
26686;SDS011;14298;50.900;4.648;2023-08-08T11:18:29;0.43;;;0.40;;
26686;SDS011;14298;50.900;4.648;2023-08-08T11:20:57;0.20;;;0.20;;
26686;SDS011;14298;50.900;4.648;2023-08-08T11:23:25;6.20;;;1.03;;
26686;SDS011;14298;50.900;4.648;2023-08-08T11:25:53;4.07;;;0.40;;
26686;SDS011;14298;50.900;4.648;2023-08-08T11:28:22;2.93;;;0.60;;
26686;SDS011;14298;50.900;4.648;2023-08-08T11:30:50;0.80;;;0.53;;
26686;SDS011;14298;50.900;4.648;2023-08-08T11:33:18;1.20;;;0.77;;
26686;SDS011;14298;50.900;4.648;2023-08-08T11:35:46;0.30;;;0.30;;
26686;SDS011;14298;50.900;4.648;2023-08-08T11:38:16;2.33;;;0.47;;
26686;SDS011;14298;50.900;4.648;2023-08-08T11:40:45;0.40;;;0.40;;
26686;SDS011;14298;50.900;4.648;2023-08-08T11:43:13;0.10;;;0.10;;
26686;SDS011;14298;50.900;4.648;2023-08-08T11:45:42;0.57;;;0.57;;
26686;SDS011;14298;50.900;4.648;2023-08-08T11:48:10;0.30;;;0.30;;
26686;SDS011;14298;50.900;4.648;2023-08-08T11:50:38;0.20;;;0.20;;
26686;SDS011;14298;50.900;4.648;2023-08-08T11:53:07;0.80;;;0.63;;
26686;SDS011;14298;50.900;4.648;2023-08-08T11:55:36;0.43;;;0.43;;
26686;SDS011;14298;50.900;4.648;2023-08-08T11:58:04;0.93;;;0.50;;
26686;SDS011;14298;50.900;4.648;2023-08-08T12:00:32;2.50;;;0.63;;
26686;SDS011;14298;50.900;4.648;2023-08-08T12:03:01;1.90;;;0.57;;
26686;SDS011;14298;50.900;4.648;2023-08-08T12:05:31;0.60;;;0.50;;
26686;SDS011;14298;50.900;4.648;2023-08-08T12:08:00;0.57;;;0.53;;
26686;SDS011;14298;50.900;4.648;2023-08-08T12:10:28;0.60;;;0.50;;
26686;SDS011;14298;50.900;4.648;2023-08-08T12:12:57;0.27;;;0.20;;
26686;SDS011;14298;50.900;4.648;2023-08-08T12:15:29;0.30;;;0.30;;
26686;SDS011;14298;50.900;4.648;2023-08-08T12:17:58;1.70;;;0.50;;
26686;SDS011;14298;50.900;4.648;2023-08-08T12:20:27;1.07;;;0.20;;
26686;SDS011;14298;50.900;4.648;2023-08-08T12:23:01;0.30;;;0.30;;
26686;SDS011;14298;50.900;4.648;2023-08-08T12:25:26;0.30;;;0.30;;
26686;SDS011;14298;50.900;4.648;2023-08-08T12:27:54;2.33;;;0.23;;
26686;SDS011;14298;50.900;4.648;2023-08-08T12:30:22;0.20;;;0.20;;
26686;SDS011;14298;50.900;4.648;2023-08-08T12:32:50;0.20;;;0.20;;
26686;SDS011;14298;50.900;4.648;2023-08-08T12:35:18;0.50;;;0.50;;
26686;SDS011;14298;50.900;4.648;2023-08-08T12:37:47;1.20;;;0.50;;
26686;SDS011;14298;50.900;4.648;2023-08-08T12:40:15;0.33;;;0.33;;
26686;SDS011;14298;50.900;4.648;2023-08-08T12:42:43;0.23;;;0.23;;
26686;SDS011;14298;50.900;4.648;2023-08-08T12:45:11;0.20;;;0.20;;
26686;SDS011;14298;50.900;4.648;2023-08-08T12:47:39;1.50;;;0.53;;
26686;SDS011;14298;50.900;4.648;2023-08-08T12:50:07;1.40;;;0.40;;
26686;SDS011;14298;50.900;4.648;2023-08-08T12:52:35;0.40;;;0.40;;
26686;SDS011;14298;50.900;4.648;2023-08-08T12:55:05;1.00;;;0.53;;
26686;SDS011;14298;50.900;4.648;2023-08-08T12:57:34;0.20;;;0.20;;
26686;SDS011;14298;50.900;4.648;2023-08-08T13:00:02;0.23;;;0.23;;
26686;SDS011;14298;50.900;4.648;2023-08-08T13:02:30;0.40;;;0.17;;
26686;SDS011;14298;50.900;4.648;2023-08-08T13:04:58;0.83;;;0.20;;
26686;SDS011;14298;50.900;4.648;2023-08-08T13:07:26;1.23;;;0.50;;
26686;SDS011;14298;50.900;4.648;2023-08-08T13:09:54;0.50;;;0.37;;
26686;SDS011;14298;50.900;4.648;2023-08-08T13:12:22;0.40;;;0.30;;
26686;SDS011;14298;50.900;4.648;2023-08-08T13:14:50;0.27;;;0.27;;
26686;SDS011;14298;50.900;4.648;2023-08-08T13:17:18;0.70;;;0.60;;
26686;SDS011;14298;50.900;4.648;2023-08-08T13:19:46;1.50;;;1.03;;
26686;SDS011;14298;50.900;4.648;2023-08-08T13:22:14;0.40;;;0.40;;
26686;SDS011;14298;50.900;4.648;2023-08-08T13:24:42;1.57;;;0.90;;
26686;SDS011;14298;50.900;4.648;2023-08-08T13:27:10;0.77;;;0.77;;
26686;SDS011;14298;50.900;4.648;2023-08-08T13:29:38;1.80;;;0.73;;
26686;SDS011;14298;50.900;4.648;2023-08-08T13:32:06;0.40;;;0.40;;
26686;SDS011;14298;50.900;4.648;2023-08-08T13:34:34;0.60;;;0.23;;
26686;SDS011;14298;50.900;4.648;2023-08-08T13:37:02;0.40;;;0.40;;
26686;SDS011;14298;50.900;4.648;2023-08-08T13:39:30;0.50;;;0.30;;
26686;SDS011;14298;50.900;4.648;2023-08-08T13:41:58;0.80;;;0.80;;
26686;SDS011;14298;50.900;4.648;2023-08-08T13:44:26;0.57;;;0.47;;
26686;SDS011;14298;50.900;4.648;2023-08-08T13:46:54;0.57;;;0.40;;
26686;SDS011;14298;50.900;4.648;2023-08-08T13:49:22;0.77;;;0.40;;
26686;SDS011;14298;50.900;4.648;2023-08-08T13:51:52;0.70;;;0.60;;
26686;SDS011;14298;50.900;4.648;2023-08-08T13:54:20;1.13;;;0.77;;
26686;SDS011;14298;50.900;4.648;2023-08-08T13:56:48;0.20;;;0.20;;
26686;SDS011;14298;50.900;4.648;2023-08-08T13:59:16;0.60;;;0.60;;
26686;SDS011;14298;50.900;4.648;2023-08-08T14:01:44;0.40;;;0.40;;
26686;SDS011;14298;50.900;4.648;2023-08-08T14:04:12;0.77;;;0.57;;
26686;SDS011;14298;50.900;4.648;2023-08-08T14:06:40;1.23;;;0.63;;
26686;SDS011;14298;50.900;4.648;2023-08-08T14:09:08;0.57;;;0.57;;
26686;SDS011;14298;50.900;4.648;2023-08-08T14:11:36;0.53;;;0.27;;
26686;SDS011;14298;50.900;4.648;2023-08-08T14:14:04;0.80;;;0.33;;
26686;SDS011;14298;50.900;4.648;2023-08-08T14:16:33;0.70;;;0.60;;
26686;SDS011;14298;50.900;4.648;2023-08-08T14:19:01;1.02;;;0.68;;
26686;SDS011;14298;50.900;4.648;2023-08-08T14:21:29;0.30;;;0.30;;
26686;SDS011;14298;50.900;4.648;2023-08-08T14:23:57;2.85;;;0.62;;
26686;SDS011;14298;50.900;4.648;2023-08-08T14:26:25;0.30;;;0.30;;
26686;SDS011;14298;50.900;4.648;2023-08-08T14:28:53;2.50;;;0.40;;
26686;SDS011;14298;50.900;4.648;2023-08-08T14:31:21;0.77;;;0.57;;
26686;SDS011;14298;50.900;4.648;2023-08-08T14:33:49;0.30;;;0.30;;
26686;SDS011;14298;50.900;4.648;2023-08-08T14:36:17;0.50;;;0.50;;
26686;SDS011;14298;50.900;4.648;2023-08-08T14:38:45;1.00;;;0.37;;
26686;SDS011;14298;50.900;4.648;2023-08-08T14:41:13;0.23;;;0.23;;
26686;SDS011;14298;50.900;4.648;2023-08-08T14:43:41;0.40;;;0.40;;
26686;SDS011;14298;50.900;4.648;2023-08-08T14:46:08;0.63;;;0.50;;
26686;SDS011;14298;50.900;4.648;2023-08-08T14:48:37;0.30;;;0.30;;
26686;SDS011;14298;50.900;4.648;2023-08-08T14:51:05;2.40;;;0.53;;
26686;SDS011;14298;50.900;4.648;2023-08-08T14:53:33;0.63;;;0.33;;
26686;SDS011;14298;50.900;4.648;2023-08-08T14:56:01;0.30;;;0.27;;